Flight Track Log - Related Links

Times and Time Zones

All times are in EDT time to prevent confusion due to time zone crossing. See the DAL975 flight status page for this flight to view local times or setup timezone preferences in your user account.

Time Position Orientation Groundspeed Altitude Reporting Facility
EDT Latitude Longitude Course Direction KTS MPH feet Rate Location/Type
Fri 07:51:27 PM 40.7667 -73.8500 270° West 144 166 1,200  Level New York TRACON
Fri 07:52:27 PM 40.7500 -73.8667 217° Southwest 169 194 3,200 3,000 Climbing New York TRACON
Fri 07:53:27 PM 40.8167 -73.9000 339° North 272 313 7,200 2,400 Climbing New York TRACON
Fri 07:54:00 PM 40.7834 -74.3720 270° West  Level FlightAware Approximate
Fri 07:54:27 PM 40.8667 -73.9500 323° Northwest 283 326 8,000  Level New York TRACON
Fri 07:55:00 PM 40.7834 -74.5000 270° West  Level FlightAware Approximate
Fri 07:55:21 PM 40.9167 -74.0167 315° West 275 316 10,100  Level New York TRACON
Fri 07:56:00 PM 40.7833 -74.6280 270° West  Level FlightAware Approximate
Fri 07:56:21 PM 40.9167 -74.1167 270° West 280 322 13,600  Level New York TRACON
Fri 07:57:21 PM 40.9333 -74.2167 282° West 290 334 15,000 700 Climbing New York TRACON
Fri 07:58:21 PM 40.9333 -74.3333 270° West 285 328 15,000  Level New York TRACON
Fri 07:59:22 PM 40.9469 -74.4167 282° West 286 329 15,000  Level New York Center
Fri 08:00:23 PM 40.9639 -74.5411 280° West 286 329 15,000  Level New York Center
Fri 08:01:23 PM 40.9756 -74.6325 280° West 281 323 15,000 67 Level New York Center
Fri 08:03:21 PM 41.1333 -74.7500 331° Northwest 374 430 15,200 336 Climbing New York TRACON
Fri 08:03:46 PM 41.1631 -74.7533 355° North 432 497 15,800 2,721 Climbing New York Center
Fri 08:04:47 PM 41.2622 -74.7786 349° North 375 432 19,100 3,000 Climbing New York Center
Fri 08:05:48 PM 41.3733 -74.8239 343° North 363 418 21,900 2,067 Climbing New York Center
Fri 08:06:46 PM 41.4433 -74.9056 319° Northwest 349 402 23,200 1,576 Climbing New York Center
Fri 08:07:46 PM 41.4911 -75.0250 298° West 340 391 25,000 1,736 Climbing New York Center
Fri 08:08:47 PM 41.5261 -75.1519 290° West 358 412 26,700 1,750 Climbing New York Center
Fri 08:09:46 PM 41.5522 -75.2839 285° West 364 419 28,500 1,587 Climbing New York Center
Fri 08:10:48 PM 41.5806 -75.4161 286° West 369 425 29,900 750 Climbing New York Center
Fri 08:11:46 PM 41.6083 -75.5539 285° West 374 430 30,000 50 Climbing New York Center
Fri 08:12:47 PM 41.6378 -75.6975 285° West 386 444 30,000  Level New York Center
Fri 08:13:47 PM 41.6675 -75.8386 286° West 392 451 30,000  Level New York Center
Fri 08:14:46 PM 41.6964 -75.9853 285° West 405 466 30,000  Level New York Center
Fri 08:15:46 PM 41.7272 -76.1350 285° West 411 473 30,000  Level New York Center
Fri 08:16:46 PM 41.7558 -76.2847 284° West 416 479 30,000  Level New York Center
Fri 08:17:47 PM 41.7828 -76.4203 285° West 422 486 30,000  Level New York Center
Fri 08:18:47 PM 41.8128 -76.5761 285° West 422 486 30,000 -149 Level New York Center
Fri 08:19:48 PM 41.8444 -76.7347 285° West 427 491 29,700 -2,022 Descending New York Center
Fri 08:21:45 PM 41.8450 -77.0458 270° West 412 474 24,000 -1,932 Descending Cleveland Center
Fri 08:22:45 PM 41.7950 -77.1850 244° Southwest 412 474 24,000  Level Cleveland Center
Fri 08:23:45 PM 41.7469 -77.3239 245° Southwest 412 474 24,000 -50 Level Cleveland Center
Fri 08:24:44 PM 41.6986 -77.4600 245° Southwest 412 474 23,900 -650 Descending Cleveland Center
Fri 08:25:45 PM 41.6500 -77.5900 243° Southwest 386 444 22,700 -1,388 Descending Cleveland Center
Fri 08:26:45 PM 41.6131 -77.6919 244° Southwest 346 398 21,100 -1,350 Descending Cleveland Center
Fri 08:27:45 PM 41.5758 -77.7933 244° Southwest 317 365 20,000 -555 Descending Cleveland Center
Fri 08:28:44 PM 41.5367 -77.8978 243° Southwest 311 358 20,000  Level Cleveland Center
Fri 08:29:44 PM 41.5014 -77.9992 245° Southwest 306 352 20,000  Level Cleveland Center
Fri 08:30:44 PM 41.4644 -78.1114 246° West 311 358 20,000  Level Cleveland Center
Fri 08:31:45 PM 41.4231 -78.2267 244° Southwest 332 382 20,000  Level Cleveland Center
Fri 08:32:45 PM 41.3856 -78.3386 246° West 337 388 20,000  Level Cleveland Center
Fri 08:33:45 PM 41.3461 -78.4533 245° Southwest 342 394 20,000  Level Cleveland Center
Fri 08:34:45 PM 41.3064 -78.5681 245° Southwest 342 394 20,000  Level Cleveland Center
Fri 08:35:44 PM 41.2647 -78.6825 244° Southwest 342 394 20,000  Level Cleveland Center
Fri 08:36:44 PM 41.2247 -78.7997 246° West 342 394 20,000  Level Cleveland Center
Fri 08:37:45 PM 41.1828 -78.9111 243° Southwest 342 394 20,000  Level Cleveland Center
Fri 08:38:44 PM 41.1447 -79.0142 244° Southwest 342 394 20,000  Level Cleveland Center
Fri 08:39:45 PM 41.1003 -79.1364 244° Southwest 342 394 20,000  Level Cleveland Center
Fri 08:40:45 PM 41.0600 -79.2447 244° Southwest 342 394 20,000 -150 Level Cleveland Center
Fri 08:41:45 PM 41.0217 -79.3556 245° Southwest 342 394 19,700 -1,400 Descending Cleveland Center
Fri 08:42:45 PM 40.9831 -79.4636 245° Southwest 342 394 17,200 -2,600 Descending Cleveland Center
Fri 08:43:45 PM 40.9444 -79.5689 244° Southwest 337 388 14,500 -2,700 Descending Cleveland Center
Fri 08:44:45 PM 40.9058 -79.6711 243° Southwest 320 368 11,800 -1,950 Descending Cleveland Center
Fri 08:45:45 PM 40.8689 -79.7731 244° Southwest 320 368 10,600 -1,300 Descending Cleveland Center
Fri 08:46:45 PM 40.8214 -79.8286 222° Southwest 268 308 9,200 -1,664 Descending Cleveland Center
Fri 08:47:44 PM 40.7506 -79.8322 182° South 228 262 7,300 -1,563 Descending Cleveland Center
Fri 08:48:44 PM 40.6797 -79.8439 187° South 240 276 6,100 -650 Descending Cleveland Center
Fri 08:49:44 PM 40.6153 -79.8472 182° South 246 283 6,000 -645 Descending Cleveland Center
Fri 08:50:45 PM 40.5694 -79.8781 207° Southwest 219 252 4,800 -992 Descending Cleveland Center
Fri 08:51:45 PM 40.5322 -79.9303 227° Southwest 201 231 4,000 -800 Descending Cleveland Center

Login

Don't have an account? Register now (free) for customized features, flight alerts, and more!